Hutchinson County Airport - Borger, Texas, United States - FAA: BGD - ICAO: KBGD - IATA: BGD

 
  Longest Runway: 6,300 feet   Approach Types:    Customs Landing Rights Airport: No   Port of Entry: No

Local Forecast

Tonight (8/16): Mostly clear, with a low around 67. North northwest wind 5 to 10 mph becoming east northeast after midnight.

Thursday (8/17): A 20 percent chance of showers and thunderstorms after 1pm. Mostly sunny, with a high near 90. East northeast wind 5 to 10 mph becoming south southeast in the afternoon.

Thursday Night (8/17): A 50 percent chance of showers and thunderstorms. Mostly cloudy, with a low around 68. South southeast wind around 10 mph. New rainfall amounts between a quarter and half of an inch possible.

Friday (8/18): A 20 percent chance of showers and thunderstorms. Partly sunny, with a high near 92. South southwest wind around 10 mph.

Friday Night (8/18): A 20 percent chance of showers and thunderstorms. Partly cloudy, with a low around 68. South wind 5 to 10 mph.

Saturday (8/19): Sunny, with a high near 93. Southwest wind 5 to 10 mph.

Saturday Night (8/19): Partly cloudy, with a low around 71. South wind around 10 mph.



Current Weather (METAR)

2017/08/16 22:51 KBGD 162251Z AUTO 36007KT 10SM CLR 31/12 A2997 RMK AO2 SLP103 T03110122

BORGER HUTCHINSON CO AIRPORT , TX, United States (KBGD) 35-42N 101-24W 927M Aug 16, 2017 - 06:51 PM EDT / 2017.08.16 2251 UTC Wind: from the N (360 degrees) at 8 MPH (7 KT):0 Visibility: 10 mile(s):0 Sky conditions: clear Temperature: 88.0 F (31.1 C) Dew Point: 54.0 F (12.2 C) Relative Humidity: 31% Pressure (altimeter): 29.97 in. Hg (1014 hPa) ob: KBGD 162251Z AUTO 36007KT 10SM CLR 31/12 A2997 RMK AO2 SLP103 T03110122 cycle: 23

Terminal Forecast (TAF)